Time;durP1;ratioP1;P1;durP2;ratioP2;P2;SDS_P1;SDS_P2;PMS_P1;PMS_P2;Temp;Humidity;BMP_temperature;BMP_pressure;BME280_temperature;BME280_humidity;BME280_pressure;Samples;Min_cycle;Max_cycle;Signal;HPM_P1;HPM_P2
2021/07/24 00:01:20;;;;;;;0.10;0.10;;;;;;;;;;5037524;28;20065;-76
2021/07/24 00:03:46;;;;;;;0.28;0.28;;;;;;;;;;5037440;28;20040;-76
2021/07/24 00:06:13;;;;;;;0.40;0.40;;;;;;;;;;5037209;28;20046;-75
2021/07/24 00:08:39;;;;;;;0.20;0.20;;;;;;;;;;5037331;28;20045;-76
2021/07/24 00:11:06;;;;;;;0.10;0.10;;;;;;;;;;5037307;28;20099;-75
2021/07/24 00:13:33;;;;;;;0.30;0.25;;;;;;;;;;5037163;28;20041;-76
2021/07/24 00:15:59;;;;;;;0.20;0.20;;;;;;;;;;5037484;28;20049;-76
2021/07/24 00:18:25;;;;;;;0.15;0.15;;;;;;;;;;5037449;28;20492;-75
2021/07/24 00:20:51;;;;;;;0.40;0.40;;;;;;;;;;5037559;28;20041;-76
2021/07/24 00:23:17;;;;;;;0.40;0.40;;;;;;;;;;5037611;28;20064;-76
2021/07/24 00:25:44;;;;;;;0.20;0.20;;;;;;;;;;5037383;28;20072;-76
2021/07/24 00:28:10;;;;;;;0.10;0.10;;;;;;;;;;5037313;28;20045;-75
2021/07/24 00:30:38;;;;;;;0.20;0.20;;;;;;;;;;5037556;28;20484;-76
2021/07/24 00:33:05;;;;;;;0.20;0.20;;;;;;;;;;5037230;28;20130;-75
2021/07/24 00:35:31;;;;;;;4.53;0.65;;;;;;;;;;5037173;28;20038;-76
2021/07/24 00:37:57;;;;;;;0.20;0.20;;;;;;;;;;5037241;28;20045;-75
2021/07/24 00:40:24;;;;;;;0.20;0.20;;;;;;;;;;5036041;28;20045;-75
2021/07/24 00:42:51;;;;;;;0.20;0.20;;;;;;;;;;5036608;28;20435;-76
2021/07/24 00:45:20;;;;;;;0.35;0.22;;;;;;;;;;5037454;28;20095;-75
2021/07/24 00:47:48;;;;;;;0.43;0.43;;;;;;;;;;5036811;28;20037;-75
2021/07/24 00:50:16;;;;;;;0.20;0.20;;;;;;;;;;5036646;28;20054;-76
2021/07/24 00:52:43;;;;;;;0.10;0.10;;;;;;;;;;5036719;28;20076;-75
2021/07/24 00:55:14;;;;;;;0.47;0.40;;;;;;;;;;5036705;28;20033;-75
2021/07/24 00:57:41;;;;;;;0.20;0.20;;;;;;;;;;5036446;28;20037;-75
2021/07/24 01:00:08;;;;;;;0.28;0.28;;;;;;;;;;5036328;28;20049;-75
2021/07/24 01:02:34;;;;;;;0.30;0.30;;;;;;;;;;5036830;28;20041;-75
2021/07/24 01:05:02;;;;;;;0.40;0.40;;;;;;;;;;5036451;28;20044;-75
2021/07/24 01:07:28;;;;;;;0.30;0.30;;;;;;;;;;5036228;28;20068;-75
2021/07/24 01:09:56;;;;;;;0.22;0.22;;;;;;;;;;5036740;28;20052;-75
2021/07/24 01:12:22;;;;;;;0.40;0.40;;;;;;;;;;5036142;28;20071;-75
2021/07/24 01:14:49;;;;;;;0.63;0.63;;;;;;;;;;5036359;28;20057;-75
2021/07/24 01:17:15;;;;;;;0.68;0.68;;;;;;;;;;5036056;28;20045;-75
2021/07/24 01:19:41;;;;;;;0.35;0.35;;;;;;;;;;5036322;28;20088;-76
2021/07/24 01:22:07;;;;;;;0.30;0.30;;;;;;;;;;5036201;28;20040;-75
2021/07/24 01:24:33;;;;;;;0.40;0.40;;;;;;;;;;5036488;28;20041;-75
2021/07/24 01:26:59;;;;;;;0.20;0.20;;;;;;;;;;5036168;28;20064;-75
2021/07/24 01:29:25;;;;;;;0.30;0.30;;;;;;;;;;5034989;28;20457;-75
2021/07/24 01:31:51;;;;;;;0.38;0.38;;;;;;;;;;5036327;28;20042;-75
2021/07/24 01:34:20;;;;;;;0.60;0.60;;;;;;;;;;5035603;28;20049;-75
2021/07/24 01:36:47;;;;;;;0.20;0.20;;;;;;;;;;5036048;28;20037;-75
2021/07/24 01:39:13;;;;;;;0.40;0.40;;;;;;;;;;5035931;28;20052;-75
2021/07/24 01:41:46;;;;;;;0.20;0.20;;;;;;;;;;5035548;28;20060;-75
2021/07/24 01:44:13;;;;;;;0.80;0.20;;;;;;;;;;5035839;28;20037;-75
2021/07/24 01:46:39;;;;;;;0.22;0.22;;;;;;;;;;5035990;28;20167;-75
2021/07/24 01:52:46;;;;;;;0.30;0.30;;;;;;;;;;5035396;28;20049;-75
2021/07/24 01:54:50;;;;;;;0.20;0.20;;;;;;;;;;5035368;28;20515;-75
2021/07/24 01:57:16;;;;;;;0.65;0.63;;;;;;;;;;5035525;28;20116;-76
2021/07/24 01:59:46;;;;;;;0.35;0.35;;;;;;;;;;5035609;28;20064;-75
2021/07/24 02:02:15;;;;;;;0.20;0.20;;;;;;;;;;5035151;28;20034;-75
2021/07/24 02:04:46;;;;;;;0.20;0.20;;;;;;;;;;5035277;28;20041;-75
2021/07/24 02:07:12;;;;;;;0.30;0.30;;;;;;;;;;5035488;28;20099;-75
2021/07/24 02:09:39;;;;;;;0.50;0.50;;;;;;;;;;5035347;28;20068;-75
2021/07/24 02:12:05;;;;;;;0.30;0.30;;;;;;;;;;5035591;28;20124;-75
2021/07/24 02:14:34;;;;;;;0.20;0.20;;;;;;;;;;5035376;28;20480;-75
2021/07/24 02:17:01;;;;;;;0.20;0.20;;;;;;;;;;5034992;28;20056;-75
2021/07/24 02:19:29;;;;;;;0.35;0.35;;;;;;;;;;5035048;28;20133;-75
2021/07/24 02:21:55;;;;;;;0.30;0.30;;;;;;;;;;5035708;28;20489;-75
2021/07/24 02:24:21;;;;;;;0.40;0.40;;;;;;;;;;5034848;28;20041;-75
2021/07/24 02:26:47;;;;;;;0.30;0.30;;;;;;;;;;5034826;28;20554;-75
2021/07/24 02:29:13;;;;;;;0.20;0.20;;;;;;;;;;5034437;28;20441;-75
2021/07/24 02:31:39;;;;;;;0.20;0.20;;;;;;;;;;5035256;28;20159;-75
2021/07/24 02:34:05;;;;;;;0.43;0.43;;;;;;;;;;5034875;28;20057;-75
2021/07/24 02:36:32;;;;;;;0.20;0.20;;;;;;;;;;5034976;28;20066;-75
2021/07/24 02:38:58;;;;;;;1.40;0.38;;;;;;;;;;5033342;28;20047;-75
2021/07/24 02:41:24;;;;;;;0.25;0.25;;;;;;;;;;5035236;28;20117;-75
2021/07/24 02:43:50;;;;;;;0.47;0.28;;;;;;;;;;5035001;28;20060;-75
2021/07/24 02:46:20;;;;;;;0.25;0.25;;;;;;;;;;5034485;28;20186;-75
2021/07/24 02:48:49;;;;;;;0.38;0.20;;;;;;;;;;5034665;28;20069;-75
2021/07/24 02:51:15;;;;;;;0.20;0.20;;;;;;;;;;5034054;28;20041;-75
2021/07/24 02:53:42;;;;;;;0.20;0.20;;;;;;;;;;5034778;28;20068;-75
2021/07/24 02:56:08;;;;;;;0.65;0.65;;;;;;;;;;5034736;28;20043;-75
2021/07/24 02:58:34;;;;;;;0.10;0.10;;;;;;;;;;5034466;28;20496;-75
2021/07/24 03:01:07;;;;;;;0.15;0.15;;;;;;;;;;5034601;28;20045;-75
2021/07/24 03:03:34;;;;;;;0.10;0.10;;;;;;;;;;5036536;28;20042;-75
2021/07/24 03:06:00;;;;;;;0.40;0.40;;;;;;;;;;5038302;28;20042;-75
2021/07/24 03:08:26;;;;;;;0.20;0.20;;;;;;;;;;5038924;28;20045;-75
2021/07/24 03:10:52;;;;;;;0.40;0.40;;;;;;;;;;5039048;28;20053;-75
2021/07/24 03:13:18;;;;;;;2.33;0.40;;;;;;;;;;5038694;28;20107;-75
2021/07/24 03:15:44;;;;;;;0.30;0.30;;;;;;;;;;5038401;28;20061;-75
2021/07/24 03:18:10;;;;;;;0.15;0.15;;;;;;;;;;5037993;28;20129;-75
2021/07/24 03:20:36;;;;;;;0.32;0.32;;;;;;;;;;5038195;28;20052;-75
2021/07/24 03:23:03;;;;;;;0.20;0.20;;;;;;;;;;5038294;28;20065;-75
2021/07/24 03:25:29;;;;;;;0.30;0.30;;;;;;;;;;5038728;28;20120;-75
2021/07/24 03:27:55;;;;;;;0.30;0.30;;;;;;;;;;5038076;28;20042;-75
2021/07/24 03:30:21;;;;;;;0.10;0.10;;;;;;;;;;5037465;28;20041;-75
2021/07/24 03:32:47;;;;;;;0.20;0.20;;;;;;;;;;5038040;28;20520;-75
2021/07/24 03:35:14;;;;;;;0.50;0.50;;;;;;;;;;5037630;28;20124;-75
2021/07/24 03:37:40;;;;;;;0.20;0.20;;;;;;;;;;5038065;28;20496;-75
2021/07/24 03:40:06;;;;;;;0.63;0.30;;;;;;;;;;5038155;28;20045;-75
2021/07/24 03:42:32;;;;;;;0.10;0.10;;;;;;;;;;5037870;28;20049;-75
2021/07/24 03:44:58;;;;;;;0.90;0.43;;;;;;;;;;5037502;28;20029;-75
2021/07/24 03:47:24;;;;;;;1.17;0.57;;;;;;;;;;5038134;28;20046;-75
2021/07/24 03:49:50;;;;;;;0.40;0.40;;;;;;;;;;5037884;28;20049;-75
2021/07/24 03:52:16;;;;;;;0.75;0.75;;;;;;;;;;5037355;28;20045;-75
2021/07/24 03:54:42;;;;;;;0.40;0.40;;;;;;;;;;5037615;28;20071;-75
2021/07/24 03:57:09;;;;;;;0.40;0.40;;;;;;;;;;5037263;28;20084;-75
2021/07/24 03:59:35;;;;;;;0.20;0.20;;;;;;;;;;5037794;28;20049;-75
2021/07/24 04:02:01;;;;;;;0.10;0.10;;;;;;;;;;5038243;28;20140;-75
2021/07/24 04:04:27;;;;;;;0.35;0.35;;;;;;;;;;5037189;28;20029;-75
2021/07/24 04:06:54;;;;;;;0.20;0.20;;;;;;;;;;5037133;28;20068;-75
2021/07/24 04:09:20;;;;;;;0.10;0.10;;;;;;;;;;5037329;28;20054;-75
2021/07/24 04:11:46;;;;;;;0.20;0.20;;;;;;;;;;5037305;28;20048;-75
2021/07/24 04:14:14;;;;;;;0.47;0.47;;;;;;;;;;5036731;28;20523;-75
2021/07/24 04:16:40;;;;;;;0.75;0.60;;;;;;;;;;5037820;28;20041;-75
2021/07/24 04:19:06;;;;;;;0.15;0.15;;;;;;;;;;5035996;28;20401;-75
2021/07/24 04:21:32;;;;;;;0.52;0.50;;;;;;;;;;5037418;28;20513;-75
2021/07/24 04:23:58;;;;;;;0.28;0.28;;;;;;;;;;5037419;28;20132;-75
2021/07/24 04:26:25;;;;;;;0.40;0.40;;;;;;;;;;5037036;28;20037;-75
2021/07/24 04:28:51;;;;;;;0.25;0.25;;;;;;;;;;5037334;28;20156;-75
2021/07/24 04:31:17;;;;;;;0.10;0.10;;;;;;;;;;5037303;28;20045;-75
2021/07/24 04:33:43;;;;;;;0.20;0.20;;;;;;;;;;5037183;28;20420;-75
2021/07/24 04:36:13;;;;;;;0.30;0.30;;;;;;;;;;5036985;28;20041;-75
2021/07/24 04:38:39;;;;;;;0.20;0.20;;;;;;;;;;5037294;28;20094;-75
2021/07/24 04:41:05;;;;;;;0.10;0.10;;;;;;;;;;5037661;28;20464;-75
2021/07/24 04:43:31;;;;;;;0.10;0.10;;;;;;;;;;5036814;28;20042;-75
2021/07/24 04:45:57;;;;;;;0.15;0.15;;;;;;;;;;5036689;28;20041;-75
2021/07/24 04:48:23;;;;;;;0.20;0.20;;;;;;;;;;5036846;28;20154;-75
2021/07/24 04:50:52;;;;;;;0.20;0.20;;;;;;;;;;5036868;28;20057;-75
2021/07/24 04:53:19;;;;;;;0.22;0.22;;;;;;;;;;5036950;28;20041;-75
2021/07/24 04:55:46;;;;;;;0.20;0.20;;;;;;;;;;5036816;28;20037;-75
2021/07/24 04:58:12;;;;;;;0.20;0.20;;;;;;;;;;5036739;28;20496;-75
2021/07/24 05:00:39;;;;;;;0.20;0.20;;;;;;;;;;5036415;28;20232;-75
2021/07/24 05:03:05;;;;;;;0.50;0.50;;;;;;;;;;5036601;28;20029;-75
2021/07/24 05:05:31;;;;;;;0.75;0.22;;;;;;;;;;5036186;28;20543;-75
2021/07/24 05:07:57;;;;;;;0.20;0.20;;;;;;;;;;5036573;28;20049;-75
2021/07/24 05:10:24;;;;;;;0.40;0.40;;;;;;;;;;5037052;28;20468;-75
2021/07/24 05:12:50;;;;;;;0.30;0.30;;;;;;;;;;5036167;28;20041;-75
2021/07/24 05:15:16;;;;;;;0.20;0.20;;;;;;;;;;5036559;28;20057;-75
2021/07/24 05:17:42;;;;;;;1.10;0.40;;;;;;;;;;5036806;28;20072;-75
2021/07/24 05:20:09;;;;;;;0.28;0.28;;;;;;;;;;5036598;28;20052;-75
2021/07/24 05:22:35;;;;;;;0.30;0.30;;;;;;;;;;5036365;28;20034;-74
2021/07/24 05:25:01;;;;;;;0.30;0.30;;;;;;;;;;5036118;28;20059;-74
2021/07/24 05:27:27;;;;;;;0.55;0.55;;;;;;;;;;5035528;28;20532;-75
2021/07/24 05:29:53;;;;;;;0.20;0.20;;;;;;;;;;5035469;28;20530;-74
2021/07/24 05:32:19;;;;;;;0.52;0.50;;;;;;;;;;5036119;28;20076;-74
2021/07/24 05:34:46;;;;;;;0.20;0.20;;;;;;;;;;5036275;28;20488;-74
2021/07/24 05:37:12;;;;;;;0.38;0.30;;;;;;;;;;5036015;28;20043;-74
2021/07/24 05:39:38;;;;;;;0.25;0.25;;;;;;;;;;5035899;28;20500;-74
2021/07/24 05:42:04;;;;;;;3.13;0.30;;;;;;;;;;5035295;28;20476;-74
2021/07/24 05:44:30;;;;;;;0.10;0.10;;;;;;;;;;5035460;28;20091;-74
2021/07/24 05:46:59;;;;;;;0.20;0.20;;;;;;;;;;5035782;28;20049;-74
2021/07/24 05:49:25;;;;;;;0.10;0.10;;;;;;;;;;5035447;28;20052;-74
2021/07/24 05:51:51;;;;;;;0.28;0.28;;;;;;;;;;5035951;28;20078;-74
2021/07/24 05:54:18;;;;;;;0.22;0.22;;;;;;;;;;5035055;28;20068;-74
2021/07/24 05:56:44;;;;;;;0.10;0.10;;;;;;;;;;5035303;28;20071;-74
2021/07/24 05:59:10;;;;;;;0.10;0.10;;;;;;;;;;5035052;28;20049;-75
2021/07/24 06:01:36;;;;;;;0.30;0.30;;;;;;;;;;5035238;28;20052;-73
2021/07/24 06:04:03;;;;;;;0.20;0.20;;;;;;;;;;5034946;28;20033;-73
2021/07/24 06:06:30;;;;;;;0.20;0.20;;;;;;;;;;5035662;28;20512;-78
2021/07/24 06:08:56;;;;;;;0.20;0.20;;;;;;;;;;5034985;28;20067;-77
2021/07/24 06:11:22;;;;;;;0.40;0.40;;;;;;;;;;5035118;28;20051;-74
2021/07/24 06:13:48;;;;;;;0.43;0.43;;;;;;;;;;5034877;28;20116;-75
2021/07/24 06:16:14;;;;;;;0.40;0.40;;;;;;;;;;5035845;28;20055;-77
2021/07/24 06:18:40;;;;;;;0.30;0.30;;;;;;;;;;5034695;28;20049;-74
2021/07/24 06:21:06;;;;;;;0.20;0.20;;;;;;;;;;5034397;28;20496;-75
2021/07/24 06:23:33;;;;;;;0.50;0.50;;;;;;;;;;5035050;28;20037;-75
2021/07/24 06:26:02;;;;;;;0.20;0.20;;;;;;;;;;5035058;28;20041;-74
2021/07/24 06:28:28;;;;;;;0.10;0.10;;;;;;;;;;5034693;28;20493;-75
2021/07/24 06:30:54;;;;;;;0.50;0.50;;;;;;;;;;5024642;28;20527;-75
2021/07/24 06:33:20;;;;;;;0.52;0.52;;;;;;;;;;5023297;28;20045;-77
2021/07/24 06:35:46;;;;;;;1.25;0.82;;;;;;;;;;5021448;28;20045;-74
2021/07/24 06:38:12;;;;;;;0.20;0.20;;;;;;;;;;5023216;28;20049;-75
2021/07/24 06:40:39;;;;;;;0.10;0.10;;;;;;;;;;5023035;28;20058;-75
2021/07/24 06:43:05;;;;;;;0.20;0.20;;;;;;;;;;5017548;28;20041;-74
2021/07/24 06:45:31;;;;;;;0.20;0.20;;;;;;;;;;5015030;28;20034;-74
2021/07/24 06:47:57;;;;;;;0.22;0.22;;;;;;;;;;5015314;28;20034;-73
2021/07/24 06:50:26;;;;;;;0.25;0.25;;;;;;;;;;5015020;28;20065;-73
2021/07/24 06:52:52;;;;;;;0.47;0.47;;;;;;;;;;5015381;28;20053;-72
2021/07/24 06:55:19;;;;;;;0.55;0.52;;;;;;;;;;5033403;28;20076;-72
2021/07/24 06:57:45;;;;;;;0.40;0.40;;;;;;;;;;5032536;28;20049;-73
2021/07/24 07:00:12;;;;;;;0.38;0.38;;;;;;;;;;5029809;28;20045;-73
2021/07/24 07:02:38;;;;;;;0.10;0.10;;;;;;;;;;5023665;28;20132;-73
2021/07/24 07:05:04;;;;;;;0.75;0.47;;;;;;;;;;5022723;28;20543;-73
2021/07/24 07:07:30;;;;;;;0.20;0.20;;;;;;;;;;5022486;28;20037;-74
2021/07/24 07:09:56;;;;;;;0.20;0.20;;;;;;;;;;5024603;28;20056;-75
2021/07/24 07:12:23;;;;;;;0.50;0.50;;;;;;;;;;5014311;28;20042;-74
2021/07/24 07:14:49;;;;;;;0.10;0.10;;;;;;;;;;5010378;28;20382;-74
2021/07/24 07:17:15;;;;;;;0.20;0.20;;;;;;;;;;5012413;28;20072;-74
2021/07/24 07:19:42;;;;;;;0.20;0.20;;;;;;;;;;5013650;28;20050;-74
2021/07/24 07:22:08;;;;;;;0.30;0.30;;;;;;;;;;5013298;28;20156;-74
2021/07/24 07:24:34;;;;;;;0.30;0.30;;;;;;;;;;5013702;28;20046;-74
2021/07/24 07:27:00;;;;;;;0.50;0.50;;;;;;;;;;5013642;28;20034;-74
2021/07/24 07:29:26;;;;;;;0.28;0.28;;;;;;;;;;5013389;28;20061;-74
2021/07/24 07:31:52;;;;;;;0.40;0.40;;;;;;;;;;5013791;28;20042;-74
2021/07/24 07:34:18;;;;;;;0.63;0.63;;;;;;;;;;5013590;28;20064;-74
2021/07/24 07:36:44;;;;;;;0.35;0.35;;;;;;;;;;5014018;28;20136;-74
2021/07/24 07:39:10;;;;;;;0.20;0.20;;;;;;;;;;5013674;28;20042;-74
2021/07/24 07:41:37;;;;;;;0.40;0.40;;;;;;;;;;5013926;28;20520;-74
2021/07/24 07:44:03;;;;;;;0.10;0.10;;;;;;;;;;5013358;28;20050;-74
2021/07/24 07:46:29;;;;;;;0.10;0.10;;;;;;;;;;5013661;28;20034;-75
2021/07/24 07:48:57;;;;;;;0.20;0.20;;;;;;;;;;5013477;28;20543;-74
2021/07/24 07:51:23;;;;;;;0.10;0.10;;;;;;;;;;5016390;28;20535;-74
2021/07/24 07:53:49;;;;;;;0.20;0.20;;;;;;;;;;5016967;28;20048;-74
2021/07/24 07:56:15;;;;;;;0.50;0.50;;;;;;;;;;5016887;28;20052;-74
2021/07/24 07:58:41;;;;;;;0.20;0.20;;;;;;;;;;5017168;28;20481;-75
2021/07/24 08:01:11;;;;;;;0.30;0.30;;;;;;;;;;5017379;28;20042;-74
2021/07/24 08:03:37;;;;;;;0.20;0.20;;;;;;;;;;5016466;28;20030;-74
2021/07/24 08:06:03;;;;;;;0.20;0.20;;;;;;;;;;5016314;28;20042;-74
2021/07/24 08:08:30;;;;;;;0.40;0.40;;;;;;;;;;5016327;28;20036;-74
2021/07/24 08:10:56;;;;;;;0.32;0.32;;;;;;;;;;5016382;28;20511;-74
2021/07/24 08:13:22;;;;;;;0.13;0.13;;;;;;;;;;5016652;28;20045;-75
2021/07/24 08:15:48;;;;;;;0.38;0.38;;;;;;;;;;4971659;28;1300219;-74
2021/07/24 08:18:15;;;;;;;0.20;0.20;;;;;;;;;;5017355;28;20481;-74
2021/07/24 08:20:41;;;;;;;0.30;0.30;;;;;;;;;;5016941;28;20122;-74
2021/07/24 08:23:08;;;;;;;0.30;0.30;;;;;;;;;;5017335;28;20045;-74
2021/07/24 08:25:35;;;;;;;0.32;0.32;;;;;;;;;;5017475;28;20033;-75
2021/07/24 08:28:05;;;;;;;0.17;0.17;;;;;;;;;;5016900;28;20045;-74
2021/07/24 08:30:31;;;;;;;0.20;0.20;;;;;;;;;;5017199;28;20493;-74
2021/07/24 08:32:58;;;;;;;0.20;0.20;;;;;;;;;;5016771;28;20030;-75
2021/07/24 08:35:24;;;;;;;0.32;0.32;;;;;;;;;;5016942;28;20493;-75
2021/07/24 08:37:51;;;;;;;0.20;0.20;;;;;;;;;;5016692;28;20069;-74
2021/07/24 08:40:17;;;;;;;0.65;0.65;;;;;;;;;;5016998;28;20050;-74
2021/07/24 08:42:43;;;;;;;0.20;0.20;;;;;;;;;;5016989;28;20060;-74
2021/07/24 08:45:11;;;;;;;0.20;0.20;;;;;;;;;;5017469;28;20615;-75
2021/07/24 08:47:37;;;;;;;0.40;0.40;;;;;;;;;;5016910;28;20493;-74
2021/07/24 08:50:04;;;;;;;0.30;0.30;;;;;;;;;;5016362;28;20061;-75
2021/07/24 08:52:31;;;;;;;0.55;0.45;;;;;;;;;;5017071;28;20044;-75
2021/07/24 08:54:58;;;;;;;0.10;0.10;;;;;;;;;;5016737;28;20080;-75
2021/07/24 08:57:33;;;;;;;0.20;0.20;;;;;;;;;;5016288;28;20563;-74
2021/07/24 09:00:05;;;;;;;0.40;0.40;;;;;;;;;;5015985;28;20050;-74
2021/07/24 09:02:32;;;;;;;0.20;0.20;;;;;;;;;;5016620;28;20045;-74
2021/07/24 09:05:03;;;;;;;0.35;0.35;;;;;;;;;;5016131;28;20075;-74
2021/07/24 09:07:32;;;;;;;0.20;0.20;;;;;;;;;;5015912;28;20165;-74
2021/07/24 09:09:59;;;;;;;0.40;0.40;;;;;;;;;;5016966;28;20054;-74
2021/07/24 09:12:26;;;;;;;0.20;0.20;;;;;;;;;;5016505;28;20049;-75
2021/07/24 09:14:52;;;;;;;0.55;0.22;;;;;;;;;;5016459;28;20435;-74
2021/07/24 09:17:20;;;;;;;1.85;0.43;;;;;;;;;;5016550;28;20045;-74
2021/07/24 09:19:47;;;;;;;0.20;0.20;;;;;;;;;;5016086;28;20038;-74
2021/07/24 09:22:26;;;;;;;0.40;0.40;;;;;;;;;;5016530;28;20128;-74
2021/07/24 09:25:12;;;;;;;0.60;0.60;;;;;;;;;;5016945;28;20033;-75
2021/07/24 09:27:39;;;;;;;0.22;0.22;;;;;;;;;;5016352;28;20125;-75
2021/07/24 09:30:06;;;;;;;0.20;0.20;;;;;;;;;;5016406;28;20057;-75
2021/07/24 09:32:33;;;;;;;0.73;0.47;;;;;;;;;;5016304;28;20069;-74
2021/07/24 09:34:59;;;;;;;0.30;0.30;;;;;;;;;;5016361;28;20045;-75
2021/07/24 09:37:29;;;;;;;0.65;0.45;;;;;;;;;;5016777;28;20040;-75
2021/07/24 09:39:56;;;;;;;0.22;0.22;;;;;;;;;;5016532;28;20129;-75
2021/07/24 09:42:28;;;;;;;0.20;0.20;;;;;;;;;;5016109;28;20042;-74
2021/07/24 09:45:10;;;;;;;0.30;0.30;;;;;;;;;;5016706;28;20128;-74
2021/07/24 09:47:36;;;;;;;0.20;0.20;;;;;;;;;;5015984;28;20038;-74
2021/07/24 09:50:11;;;;;;;0.28;0.28;;;;;;;;;;5016020;28;20212;-74
2021/07/24 09:52:46;;;;;;;0.30;0.30;;;;;;;;;;5016017;28;20037;-74
2021/07/24 09:55:17;;;;;;;0.45;0.45;;;;;;;;;;5015602;28;20624;-74
2021/07/24 09:57:44;;;;;;;0.20;0.20;;;;;;;;;;5015791;28;20037;-75
2021/07/24 10:00:39;;;;;;;0.40;0.40;;;;;;;;;;5015847;28;20045;-74
2021/07/24 10:03:06;;;;;;;0.43;0.43;;;;;;;;;;5015812;28;20033;-74
2021/07/24 10:05:35;;;;;;;0.20;0.20;;;;;;;;;;5015815;28;20033;-74
2021/07/24 10:08:14;;;;;;;0.20;0.20;;;;;;;;;;5015364;28;20030;-74
2021/07/24 10:10:42;;;;;;;0.22;0.22;;;;;;;;;;5016418;28;20132;-74
2021/07/24 10:13:12;;;;;;;0.10;0.10;;;;;;;;;;5015064;28;20064;-74
2021/07/24 10:15:45;;;;;;;0.20;0.20;;;;;;;;;;5016439;28;20045;-74
2021/07/24 10:18:14;;;;;;;0.10;0.10;;;;;;;;;;5015502;28;20046;-75
2021/07/24 10:20:45;;;;;;;0.35;0.35;;;;;;;;;;5015073;28;20511;-74
2021/07/24 10:23:11;;;;;;;;;;;;;;;;;;5015650;28;20042;-74
2021/07/24 10:25:45;;;;;;;0.20;0.20;;;;;;;;;;5015436;28;19916;-74
2021/07/24 10:28:13;;;;;;;0.20;0.20;;;;;;;;;;5015479;28;20053;-74
2021/07/24 10:30:39;;;;;;;0.20;0.20;;;;;;;;;;5015850;28;20054;-74
2021/07/24 10:33:06;;;;;;;0.25;0.25;;;;;;;;;;5015049;28;20484;-75
2021/07/24 10:35:39;;;;;;;1.50;0.88;;;;;;;;;;5015108;28;20034;-74
2021/07/24 10:38:29;;;;;;;3.80;0.47;;;;;;;;;;5015542;28;20469;-74
2021/07/24 10:40:55;;;;;;;0.37;0.37;;;;;;;;;;5014392;28;20053;-74
2021/07/24 10:43:40;;;;;;;0.32;0.32;;;;;;;;;;5015271;28;20128;-74
2021/07/24 10:46:06;;;;;;;0.20;0.20;;;;;;;;;;5015228;28;20034;-74
2021/07/24 10:48:43;;;;;;;0.30;0.30;;;;;;;;;;5014739;28;20041;-74
2021/07/24 10:51:16;;;;;;;0.20;0.20;;;;;;;;;;5014396;28;20034;-74
2021/07/24 10:54:03;;;;;;;0.20;0.20;;;;;;;;;;5015025;28;20030;-74
2021/07/24 10:56:39;;;;;;;0.20;0.20;;;;;;;;;;5014604;28;20045;-74
2021/07/24 10:59:17;;;;;;;0.10;0.10;;;;;;;;;;5014419;28;20489;-75
2021/07/24 11:01:46;;;;;;;0.10;0.10;;;;;;;;;;5014936;28;20531;-74
2021/07/24 11:04:31;;;;;;;0.22;0.22;;;;;;;;;;5014852;28;20511;-74
2021/07/24 11:07:16;;;;;;;0.20;0.20;;;;;;;;;;5015103;28;20034;-74
2021/07/24 11:09:46;;;;;;;0.43;0.43;;;;;;;;;;5014720;28;20056;-74
2021/07/24 11:12:15;;;;;;;0.22;0.22;;;;;;;;;;5014634;28;20034;-74
2021/07/24 11:14:42;;;;;;;0.50;0.50;;;;;;;;;;5014999;28;20054;-74
2021/07/24 11:17:08;;;;;;;0.73;0.70;;;;;;;;;;5014560;28;20045;-74
2021/07/24 11:19:35;;;;;;;0.10;0.10;;;;;;;;;;5014774;28;20100;-75
2021/07/24 11:22:17;;;;;;;2.83;0.30;;;;;;;;;;5014542;28;20038;-74
2021/07/24 11:24:50;;;;;;;0.50;0.50;;;;;;;;;;5016362;28;20056;-74
2021/07/24 11:27:16;;;;;;;0.30;0.30;;;;;;;;;;5018335;28;20030;-74
2021/07/24 11:29:42;;;;;;;0.52;0.52;;;;;;;;;;5018612;28;20079;-74
2021/07/24 11:32:09;;;;;;;0.65;0.65;;;;;;;;;;5018319;28;20557;-74
2021/07/24 11:34:37;;;;;;;0.20;0.20;;;;;;;;;;5018122;28;20042;-74
2021/07/24 11:37:04;;;;;;;0.20;0.20;;;;;;;;;;5018158;28;20497;-75
2021/07/24 11:39:31;;;;;;;0.40;0.40;;;;;;;;;;5017899;28;20069;-74
2021/07/24 11:41:57;;;;;;;0.60;0.60;;;;;;;;;;5018323;28;20037;-74
2021/07/24 11:44:30;;;;;;;0.20;0.20;;;;;;;;;;5017780;28;20092;-74
2021/07/24 11:47:00;;;;;;;0.30;0.30;;;;;;;;;;5018322;28;20401;-74
2021/07/24 11:49:27;;;;;;;0.22;0.22;;;;;;;;;;5017757;28;20050;-74
2021/07/24 11:51:54;;;;;;;0.75;0.50;;;;;;;;;;5017847;28;20095;-74
2021/07/24 11:54:46;;;;;;;0.38;0.38;;;;;;;;;;5017583;28;20073;-74
2021/07/24 11:57:12;;;;;;;0.38;0.38;;;;;;;;;;5017325;28;20072;-75
2021/07/24 11:59:40;;;;;;;1.02;0.75;;;;;;;;;;5018124;28;20046;-74
2021/07/24 12:02:18;;;;;;;0.32;0.32;;;;;;;;;;5017777;28;20149;-74
2021/07/24 12:04:48;;;;;;;0.47;0.40;;;;;;;;;;5017744;28;20048;-74
2021/07/24 12:07:14;;;;;;;0.30;0.30;;;;;;;;;;5017427;28;20084;-75
2021/07/24 12:09:41;;;;;;;0.40;0.40;;;;;;;;;;5017550;28;20289;-75
2021/07/24 12:12:07;;;;;;;0.85;0.75;;;;;;;;;;5017287;28;20038;-74
2021/07/24 12:14:33;;;;;;;0.85;0.85;;;;;;;;;;5017619;28;20045;-74
2021/07/24 12:17:26;;;;;;;0.20;0.20;;;;;;;;;;5018085;28;20045;-74
2021/07/24 12:19:52;;;;;;;2.92;0.95;;;;;;;;;;5016917;28;20053;-74
2021/07/24 12:22:27;;;;;;;0.25;0.25;;;;;;;;;;5017628;28;20034;-75
2021/07/24 12:25:10;;;;;;;0.25;0.25;;;;;;;;;;5017967;28;20048;-74
2021/07/24 12:27:47;;;;;;;0.47;0.47;;;;;;;;;;5017276;28;20037;-74
2021/07/24 12:30:25;;;;;;;0.47;0.47;;;;;;;;;;5017190;28;20115;-74
2021/07/24 12:32:51;;;;;;;0.30;0.30;;;;;;;;;;5017350;28;20041;-74
2021/07/24 12:35:19;;;;;;;0.80;0.80;;;;;;;;;;5017121;28;20041;-75
2021/07/24 12:37:45;;;;;;;0.77;0.65;;;;;;;;;;5017303;28;20084;-74
2021/07/24 12:40:13;;;;;;;0.30;0.30;;;;;;;;;;5017986;28;20055;-75
2021/07/24 12:42:39;;;;;;;0.20;0.20;;;;;;;;;;5016943;28;20469;-74
2021/07/24 12:45:06;;;;;;;0.32;0.32;;;;;;;;;;5017233;28;20049;-74
2021/07/24 12:47:36;;;;;;;0.40;0.40;;;;;;;;;;5017788;28;20034;-74
2021/07/24 12:50:15;;;;;;;0.52;0.52;;;;;;;;;;5016719;28;20061;-75
2021/07/24 12:52:56;;;;;;;0.30;0.30;;;;;;;;;;5017086;28;20034;-75
2021/07/24 12:55:24;;;;;;;0.30;0.30;;;;;;;;;;5016839;28;20048;-74
2021/07/24 12:57:51;;;;;;;0.43;0.43;;;;;;;;;;5016664;28;20034;-75
2021/07/24 13:00:18;;;;;;;0.60;0.60;;;;;;;;;;5017562;28;20412;-74
2021/07/24 13:02:45;;;;;;;0.75;0.52;;;;;;;;;;5016871;28;20036;-74
2021/07/24 13:05:12;;;;;;;0.57;0.57;;;;;;;;;;5016698;28;20065;-75
2021/07/24 13:07:41;;;;;;;0.43;0.43;;;;;;;;;;5016795;28;20037;-74
2021/07/24 13:10:09;;;;;;;1.17;0.97;;;;;;;;;;5017068;28;20103;-74
2021/07/24 13:12:35;;;;;;;0.73;0.63;;;;;;;;;;5016377;28;20037;-74
2021/07/24 13:15:01;;;;;;;0.80;0.60;;;;;;;;;;5016689;28;20042;-74
2021/07/24 13:17:27;;;;;;;0.38;0.38;;;;;;;;;;5015486;28;20404;-74
2021/07/24 13:19:54;;;;;;;0.55;0.55;;;;;;;;;;5016441;28;20579;-74
2021/07/24 13:22:20;;;;;;;0.38;0.38;;;;;;;;;;5016466;28;20063;-74
2021/07/24 13:24:46;;;;;;;0.82;0.60;;;;;;;;;;5016536;28;20045;-75
2021/07/24 13:29:57;;;;;;;1.73;0.82;;;;;;;;;;5015797;28;20092;-74
2021/07/24 13:32:24;;;;;;;0.45;0.40;;;;;;;;;;5016309;28;20132;-74
2021/07/24 13:34:50;;;;;;;0.82;0.65;;;;;;;;;;5016290;28;20038;-74
2021/07/24 13:37:20;;;;;;;0.52;0.38;;;;;;;;;;5017054;28;20064;-74
2021/07/24 13:39:47;;;;;;;0.30;0.30;;;;;;;;;;5015977;28;20534;-74
2021/07/24 13:42:13;;;;;;;1.05;1.05;;;;;;;;;;5015894;28;20129;-74
2021/07/24 13:44:39;;;;;;;0.40;0.40;;;;;;;;;;5016201;28;20084;-75
2021/07/24 13:47:05;;;;;;;0.35;0.35;;;;;;;;;;5015541;28;20532;-74
2021/07/24 13:49:35;;;;;;;0.40;0.40;;;;;;;;;;5016127;28;20046;-74
2021/07/24 13:52:01;;;;;;;0.85;0.40;;;;;;;;;;5015743;28;20485;-74
2021/07/24 13:54:30;;;;;;;0.20;0.20;;;;;;;;;;5015675;28;20042;-74
2021/07/24 13:56:56;;;;;;;1.20;1.02;;;;;;;;;;5016422;28;20038;-75
2021/07/24 13:59:23;;;;;;;0.43;0.43;;;;;;;;;;5016236;28;20096;-74
2021/07/24 14:01:49;;;;;;;1.33;1.25;;;;;;;;;;5015583;28;20038;-74
2021/07/24 14:04:15;;;;;;;0.52;0.52;;;;;;;;;;5015877;28;20050;-75
2021/07/24 14:06:41;;;;;;;0.40;0.40;;;;;;;;;;5015510;28;20088;-74
2021/07/24 14:09:07;;;;;;;1.15;0.52;;;;;;;;;;5015714;28;20184;-74
2021/07/24 14:11:33;;;;;;;0.32;0.32;;;;;;;;;;5015952;28;20065;-74
2021/07/24 14:13:59;;;;;;;0.25;0.25;;;;;;;;;;5015426;28;20046;-74
2021/07/24 14:16:25;;;;;;;0.57;0.57;;;;;;;;;;5015582;28;20034;-75
2021/07/24 14:18:51;;;;;;;3.95;0.80;;;;;;;;;;5015545;28;20041;-75
2021/07/24 14:21:19;;;;;;;0.20;0.20;;;;;;;;;;5015102;28;20038;-74
2021/07/24 14:23:46;;;;;;;0.73;0.73;;;;;;;;;;5015970;28;20493;-74
2021/07/24 14:26:12;;;;;;;0.63;0.63;;;;;;;;;;5015356;28;20030;-74
2021/07/24 14:28:38;;;;;;;0.55;0.55;;;;;;;;;;5015633;28;20044;-74
2021/07/24 14:31:04;;;;;;;0.30;0.30;;;;;;;;;;5015915;28;20038;-74
2021/07/24 14:33:33;;;;;;;1.08;1.00;;;;;;;;;;5015260;28;20037;-75
2021/07/24 14:35:59;;;;;;;0.50;0.50;;;;;;;;;;5014816;28;20059;-75
2021/07/24 14:38:25;;;;;;;0.32;0.32;;;;;;;;;;5015025;28;20133;-74
2021/07/24 14:41:01;;;;;;;0.40;0.40;;;;;;;;;;5015320;28;20107;-74
2021/07/24 14:43:28;;;;;;;0.47;0.47;;;;;;;;;;5015389;28;20117;-74
2021/07/24 14:45:54;;;;;;;1.45;0.47;;;;;;;;;;5015157;28;20060;-74
2021/07/24 14:48:20;;;;;;;0.75;0.50;;;;;;;;;;5015926;28;20038;-74
2021/07/24 14:50:46;;;;;;;1.55;1.05;;;;;;;;;;5014372;28;20417;-74
2021/07/24 14:53:13;;;;;;;0.50;0.50;;;;;;;;;;5015093;28;20041;-74